createdAt,value
2022-08-21T00:02:16.549Z,99.90
2022-08-21T00:04:48.223Z,99.90
2022-08-21T00:07:25.708Z,99.90
2022-08-21T00:09:55.521Z,99.90
2022-08-21T00:12:23.798Z,99.90
2022-08-21T00:14:58.021Z,99.90
2022-08-21T00:17:44.990Z,99.90
2022-08-21T00:20:17.108Z,99.90
2022-08-21T00:22:45.903Z,99.90
2022-08-21T00:25:15.695Z,99.90
2022-08-21T00:27:44.387Z,99.90
2022-08-21T00:30:22.839Z,99.90
2022-08-21T00:32:52.922Z,99.90
2022-08-21T00:35:26.489Z,99.90
2022-08-21T00:37:54.806Z,99.90
2022-08-21T00:40:27.133Z,99.90
2022-08-21T00:42:55.326Z,99.90
2022-08-21T00:45:25.783Z,99.90
2022-08-21T00:47:56.160Z,99.90
2022-08-21T00:50:27.759Z,99.90
2022-08-21T00:52:56.265Z,99.90
2022-08-21T00:55:25.794Z,99.90
2022-08-21T00:57:57.212Z,99.90
2022-08-21T01:00:31.468Z,99.90
2022-08-21T01:03:01.209Z,99.90
2022-08-21T01:05:30.180Z,99.90
2022-08-21T01:07:59.000Z,99.90
2022-08-21T01:10:27.553Z,99.90
2022-08-21T01:12:58.393Z,99.90
2022-08-21T01:15:32.494Z,99.90
2022-08-21T01:18:00.686Z,99.90
2022-08-21T01:20:32.653Z,99.90
2022-08-21T01:23:03.330Z,99.90
2022-08-21T01:25:32.574Z,99.90
2022-08-21T01:28:03.981Z,99.90
2022-08-21T01:30:35.369Z,99.90
2022-08-21T01:33:03.742Z,99.90
2022-08-21T01:35:32.405Z,99.90
2022-08-21T01:38:01.935Z,99.90
2022-08-21T01:40:30.226Z,99.90
2022-08-21T01:42:58.784Z,99.90
2022-08-21T01:45:27.259Z,99.90
2022-08-21T01:47:55.377Z,99.90
2022-08-21T01:50:24.154Z,99.90
2022-08-21T01:52:53.019Z,99.90
2022-08-21T01:55:23.554Z,99.90
2022-08-21T01:57:51.706Z,99.90
2022-08-21T02:00:23.833Z,99.90
2022-08-21T02:02:52.676Z,99.90
2022-08-21T02:05:21.868Z,99.90
2022-08-21T02:07:52.201Z,99.90
2022-08-21T02:10:25.073Z,99.90
2022-08-21T02:12:53.218Z,99.90
2022-08-21T02:15:21.763Z,99.90
2022-08-21T02:17:53.569Z,99.90
2022-08-21T02:20:24.748Z,99.90
2022-08-21T02:22:53.341Z,99.90
2022-08-21T02:25:24.304Z,99.90
2022-08-21T02:27:52.731Z,99.90
2022-08-21T02:30:23.638Z,99.90
2022-08-21T02:32:52.375Z,99.90
2022-08-21T02:35:21.475Z,99.90
2022-08-21T02:37:52.820Z,99.90
2022-08-21T02:40:25.510Z,99.90
2022-08-21T02:42:53.513Z,99.90
2022-08-21T02:45:22.487Z,99.90
2022-08-21T02:47:51.007Z,99.90
2022-08-21T02:50:22.667Z,99.90
2022-08-21T02:52:55.013Z,99.90
2022-08-21T02:55:27.521Z,99.90
2022-08-21T02:57:56.811Z,99.90
2022-08-21T03:00:27.249Z,99.90
2022-08-21T03:02:57.217Z,99.90
2022-08-21T03:05:26.734Z,99.90
2022-08-21T03:07:55.417Z,99.90
2022-08-21T03:10:25.922Z,99.90
2022-08-21T03:12:55.454Z,99.90
2022-08-21T03:15:26.127Z,99.90
2022-08-21T03:17:55.577Z,99.90
2022-08-21T03:20:25.813Z,99.90
2022-08-21T03:22:54.810Z,99.90
2022-08-21T03:25:39.802Z,99.90
2022-08-21T03:28:12.941Z,99.90
2022-08-21T03:30:41.524Z,99.90
2022-08-21T03:33:12.176Z,99.90
2022-08-21T03:35:42.710Z,99.90
2022-08-21T03:38:11.050Z,99.90
2022-08-21T03:40:40.685Z,99.90
2022-08-21T03:43:10.139Z,99.90
2022-08-21T03:45:38.719Z,99.90
2022-08-21T03:48:08.112Z,99.90
2022-08-21T03:50:41.540Z,99.90
2022-08-21T03:53:16.873Z,99.90
2022-08-21T03:55:48.875Z,99.90
2022-08-21T03:58:21.409Z,99.90
2022-08-21T04:00:51.744Z,99.90
2022-08-21T04:03:21.868Z,99.90
2022-08-21T04:05:55.884Z,99.90
2022-08-21T04:08:24.042Z,99.90
2022-08-21T04:10:55.814Z,99.90
2022-08-21T04:13:24.246Z,99.90
2022-08-21T04:15:53.080Z,99.90
2022-08-21T04:18:21.229Z,99.90
2022-08-21T04:20:51.912Z,99.90
2022-08-21T04:23:23.625Z,99.90
2022-08-21T04:25:55.090Z,99.90
2022-08-21T04:28:23.641Z,99.90
2022-08-21T04:30:58.577Z,99.90
2022-08-21T04:33:27.084Z,99.90
2022-08-21T04:35:55.298Z,99.90
2022-08-21T04:38:23.461Z,99.90
2022-08-21T04:40:56.323Z,99.90
2022-08-21T04:43:27.355Z,99.90
2022-08-21T04:45:55.877Z,99.90
2022-08-21T04:48:26.143Z,99.90
2022-08-21T04:51:02.228Z,99.90
2022-08-21T04:53:39.231Z,99.90
2022-08-21T04:56:35.791Z,99.90
2022-08-21T04:59:24.633Z,99.90
2022-08-21T05:01:54.330Z,99.90
2022-08-21T05:04:26.369Z,99.90
2022-08-21T05:06:56.813Z,99.90
2022-08-21T05:09:28.740Z,99.90
2022-08-21T05:11:59.383Z,99.90
2022-08-21T05:14:28.276Z,99.90
2022-08-21T05:16:56.369Z,99.90
2022-08-21T05:19:24.764Z,99.90
2022-08-21T05:21:53.057Z,99.90
2022-08-21T05:24:21.650Z,99.90
2022-08-21T05:26:49.975Z,99.90
2022-08-21T05:29:21.474Z,99.90
2022-08-21T05:31:50.890Z,99.90
2022-08-21T05:34:22.893Z,99.90
2022-08-21T05:36:51.298Z,99.90
2022-08-21T05:39:19.583Z,99.90
2022-08-21T05:41:48.729Z,99.90
2022-08-21T05:44:21.049Z,99.90
2022-08-21T05:46:53.782Z,99.90
2022-08-21T05:49:22.049Z,99.90
2022-08-21T05:51:50.271Z,99.90
2022-08-21T05:54:18.434Z,99.90
2022-08-21T05:56:46.985Z,99.90
2022-08-21T05:59:15.409Z,99.90
2022-08-21T06:01:46.300Z,99.90
2022-08-21T06:04:15.546Z,99.90
2022-08-21T06:06:43.825Z,99.90
2022-08-21T06:09:12.418Z,99.90
2022-08-21T06:11:40.668Z,99.90
2022-08-21T06:14:08.789Z,99.90
2022-08-21T06:16:36.905Z,99.90
2022-08-21T06:19:06.586Z,99.90
2022-08-21T06:21:34.689Z,99.90
2022-08-21T06:24:02.911Z,99.90
2022-08-21T06:26:31.869Z,99.90
2022-08-21T06:29:00.229Z,99.90
2022-08-21T06:31:30.562Z,99.90
2022-08-21T06:33:59.336Z,99.90
2022-08-21T06:36:29.061Z,99.90
2022-08-21T06:38:58.058Z,99.90
2022-08-21T06:41:27.130Z,99.90
2022-08-21T06:43:59.159Z,99.90
2022-08-21T06:46:30.957Z,99.90
2022-08-21T06:48:59.725Z,99.90
2022-08-21T06:51:29.782Z,99.90
2022-08-21T06:53:59.455Z,99.90
2022-08-21T06:56:28.078Z,99.90
2022-08-21T06:58:59.098Z,99.90
2022-08-21T07:01:29.191Z,99.90
2022-08-21T07:03:57.364Z,99.90
2022-08-21T07:06:25.858Z,99.90
2022-08-21T07:08:55.405Z,99.90
2022-08-21T07:11:28.038Z,99.90
2022-08-21T07:13:57.499Z,99.90
2022-08-21T07:16:26.237Z,99.90
2022-08-21T07:19:04.733Z,99.90
2022-08-21T07:21:32.854Z,99.90
2022-08-21T07:24:05.455Z,99.90
2022-08-21T07:26:33.669Z,99.90
2022-08-21T07:29:02.162Z,99.90
2022-08-21T07:31:36.749Z,99.90
2022-08-21T07:34:05.027Z,99.90
2022-08-21T07:36:33.590Z,99.90
2022-08-21T07:39:05.461Z,99.90
2022-08-21T07:41:35.419Z,99.90
2022-08-21T07:44:12.789Z,99.90
2022-08-21T07:46:45.998Z,99.90
2022-08-21T07:49:14.614Z,99.90
2022-08-21T07:55:37.632Z,99.90
2022-08-21T07:58:05.910Z,99.90
2022-08-21T08:00:42.885Z,99.90
2022-08-21T08:03:11.069Z,99.90
2022-08-21T08:05:41.631Z,99.90
2022-08-21T08:08:48.957Z,99.90
2022-08-21T08:11:19.043Z,99.90
2022-08-21T08:13:49.190Z,99.90
2022-08-21T08:16:17.944Z,99.90
2022-08-21T08:18:51.634Z,99.90
2022-08-21T08:21:22.128Z,99.90
2022-08-21T08:23:50.661Z,99.90
2022-08-21T08:26:20.446Z,99.90
2022-08-21T08:28:48.978Z,99.90
2022-08-21T08:31:17.206Z,99.90
2022-08-21T08:33:45.397Z,99.90
2022-08-21T08:36:19.203Z,99.90
2022-08-21T08:38:49.524Z,99.90
2022-08-21T08:41:23.924Z,99.90
2022-08-21T08:44:05.241Z,99.90
2022-08-21T08:46:38.141Z,99.90
2022-08-21T08:49:12.298Z,99.90
2022-08-21T08:51:58.646Z,99.90
2022-08-21T08:54:32.568Z,99.90
2022-08-21T08:57:03.948Z,99.90
2022-08-21T08:59:40.173Z,99.90
2022-08-21T09:02:14.692Z,99.90
2022-08-21T09:04:50.254Z,99.90
2022-08-21T09:07:25.838Z,99.90
2022-08-21T09:10:14.411Z,99.90
2022-08-21T09:12:53.620Z,99.90
2022-08-21T09:15:30.482Z,99.90
2022-08-21T09:18:31.432Z,99.90
2022-08-21T09:21:12.037Z,99.90
2022-08-21T09:23:56.095Z,99.90
2022-08-21T09:26:29.518Z,99.90
2022-08-21T09:29:02.875Z,99.90
2022-08-21T09:31:37.538Z,99.90
2022-08-21T09:34:12.487Z,99.90
2022-08-21T09:36:45.426Z,99.90
2022-08-21T09:39:25.007Z,99.90
2022-08-21T09:42:01.369Z,99.90
2022-08-21T09:44:34.563Z,99.90
2022-08-21T09:47:05.453Z,99.90
2022-08-21T09:49:35.802Z,99.90
2022-08-21T09:52:06.214Z,99.90
2022-08-21T09:54:41.068Z,99.90
2022-08-21T10:01:17.315Z,99.90
2022-08-21T10:03:45.974Z,99.90
2022-08-21T10:06:26.463Z,99.90
2022-08-21T10:09:06.911Z,99.90
2022-08-21T10:11:35.568Z,99.90
2022-08-21T10:14:15.639Z,99.90
2022-08-21T10:17:01.348Z,99.90
2022-08-21T10:19:40.043Z,99.90
2022-08-21T10:22:25.148Z,99.90
2022-08-21T10:25:00.625Z,98.90
2022-08-21T10:27:43.821Z,99.90
2022-08-21T10:30:17.147Z,99.90
2022-08-21T10:33:21.096Z,97.60
2022-08-21T10:35:59.870Z,97.30
2022-08-21T10:39:12.166Z,97.80
2022-08-21T10:41:59.388Z,95.90
2022-08-21T10:44:45.394Z,94.70
2022-08-21T10:47:20.880Z,95.90
2022-08-21T10:50:02.116Z,96.20
2022-08-21T10:52:59.561Z,94.20
2022-08-21T10:55:34.002Z,93.40
2022-08-21T10:58:07.185Z,93.50
2022-08-21T11:00:43.367Z,95.60
2022-08-21T11:03:17.765Z,94.30
2022-08-21T11:05:53.761Z,94.40
2022-08-21T11:08:28.422Z,93.90
2022-08-21T11:11:02.364Z,95.50
2022-08-21T11:13:42.861Z,95.80
2022-08-21T11:16:18.619Z,94.90
2022-08-21T11:18:52.462Z,92.10
2022-08-21T11:21:39.338Z,94.70
2022-08-21T11:24:21.945Z,94.10
2022-08-21T11:26:54.426Z,93.80
2022-08-21T11:29:26.554Z,93.20
2022-08-21T11:32:07.480Z,95.00
2022-08-21T11:34:58.296Z,92.20
2022-08-21T11:37:42.537Z,90.30
2022-08-21T11:40:21.222Z,91.30
2022-08-21T11:43:02.282Z,88.10
2022-08-21T11:45:39.339Z,91.30
2022-08-21T11:48:15.210Z,90.20
2022-08-21T11:50:48.075Z,90.10
2022-08-21T11:53:43.086Z,90.30
2022-08-21T11:56:17.325Z,90.30
2022-08-21T11:58:50.215Z,90.40
2022-08-21T12:01:27.634Z,91.10
2022-08-21T12:04:11.062Z,90.00
2022-08-21T12:06:57.845Z,90.50
2022-08-21T12:09:40.126Z,89.40
2022-08-21T12:12:15.419Z,87.60
2022-08-21T12:14:57.678Z,90.30
2022-08-21T12:17:49.730Z,89.80
2022-08-21T12:20:36.150Z,87.10
2022-08-21T12:23:17.500Z,88.30
2022-08-21T12:26:00.728Z,87.10
2022-08-21T12:28:33.743Z,86.50
2022-08-21T12:31:04.277Z,89.40
2022-08-21T12:33:36.016Z,90.50
2022-08-21T12:36:09.064Z,84.90
2022-08-21T12:38:53.221Z,83.30
2022-08-21T12:41:28.540Z,80.40
2022-08-21T12:44:02.885Z,83.90
2022-08-21T12:46:38.412Z,84.50
2022-08-21T12:49:15.362Z,82.80
2022-08-21T12:51:55.097Z,81.00
2022-08-21T12:54:30.696Z,81.30
2022-08-21T12:57:02.637Z,82.50
2022-08-21T12:59:32.043Z,85.70
2022-08-21T13:02:05.344Z,82.30
2022-08-21T13:04:41.007Z,80.60
2022-08-21T13:07:13.351Z,85.10
2022-08-21T13:09:46.976Z,80.40
2022-08-21T13:12:19.772Z,80.80
2022-08-21T13:14:49.047Z,79.10
2022-08-21T13:17:25.681Z,80.10
2022-08-21T13:19:59.952Z,79.50
2022-08-21T13:22:33.287Z,86.30
2022-08-21T13:25:06.601Z,86.50
2022-08-21T13:27:37.033Z,81.10
2022-08-21T13:30:12.790Z,82.80
2022-08-21T13:32:44.410Z,84.80
2022-08-21T13:35:20.332Z,80.80
2022-08-21T13:37:52.004Z,81.70
2022-08-21T13:40:23.879Z,79.90
2022-08-21T13:42:54.302Z,80.90
2022-08-21T13:45:27.434Z,83.00
2022-08-21T13:47:56.966Z,84.00
2022-08-21T13:50:27.680Z,85.60
2022-08-21T13:53:05.121Z,85.10
2022-08-21T13:55:42.598Z,86.10
2022-08-21T13:58:13.731Z,75.10
2022-08-21T14:00:48.562Z,74.70
2022-08-21T14:03:30.198Z,75.90
2022-08-21T14:06:00.330Z,82.70
2022-08-21T14:08:35.622Z,77.70
2022-08-21T14:11:06.076Z,83.30
2022-08-21T14:13:42.624Z,79.50
2022-08-21T14:16:19.086Z,78.10
2022-08-21T14:18:50.900Z,79.30
2022-08-21T14:21:31.312Z,78.90
2022-08-21T14:24:08.240Z,76.20
2022-08-21T14:26:39.880Z,79.30
2022-08-21T14:29:11.621Z,77.00
2022-08-21T14:31:43.182Z,81.00
2022-08-21T14:34:19.250Z,85.50
2022-08-21T14:36:48.686Z,79.30
2022-08-21T14:39:16.963Z,76.20
2022-08-21T14:41:46.989Z,75.40
2022-08-21T14:44:17.554Z,74.20
2022-08-21T14:46:55.497Z,75.40
2022-08-21T14:49:27.296Z,73.80
2022-08-21T14:51:58.502Z,76.40
2022-08-21T14:54:30.647Z,73.60
2022-08-21T14:57:02.831Z,72.40
2022-08-21T14:59:34.166Z,73.10
2022-08-21T15:02:04.498Z,74.80
2022-08-21T15:04:32.721Z,72.90
2022-08-21T15:07:00.848Z,75.10
2022-08-21T15:09:28.993Z,74.80
2022-08-21T15:12:00.655Z,76.30
2022-08-21T15:14:34.675Z,76.10
2022-08-21T15:17:04.411Z,76.00
2022-08-21T15:19:32.585Z,76.20
2022-08-21T15:22:01.154Z,76.50
2022-08-21T15:24:29.650Z,75.50
2022-08-21T15:26:58.667Z,74.40
2022-08-21T15:29:32.589Z,74.20
2022-08-21T15:32:05.313Z,74.00
2022-08-21T15:34:33.672Z,75.30
2022-08-21T15:37:01.804Z,75.10
2022-08-21T15:39:31.485Z,76.40
2022-08-21T15:42:02.060Z,76.20
2022-08-21T15:44:40.733Z,74.90
2022-08-21T15:47:15.203Z,73.40
2022-08-21T15:49:46.005Z,72.10
2022-08-21T15:52:14.626Z,71.80
2022-08-21T15:54:42.991Z,70.20
2022-08-21T15:57:12.837Z,72.40
2022-08-21T15:59:45.403Z,72.50
2022-08-21T16:02:16.751Z,72.80
2022-08-21T16:05:16.334Z,69.70
2022-08-21T16:08:27.657Z,73.10
2022-08-21T16:10:58.147Z,69.60
2022-08-21T16:13:31.404Z,70.20
2022-08-21T16:15:59.633Z,71.30
2022-08-21T16:18:29.379Z,70.00
2022-08-21T16:20:57.555Z,70.80
2022-08-21T16:23:25.701Z,70.70
2022-08-21T16:25:53.990Z,72.10
2022-08-21T16:28:24.688Z,73.20
2022-08-21T16:30:53.508Z,73.80
2022-08-21T16:33:26.780Z,74.40
2022-08-21T16:35:56.374Z,73.70
2022-08-21T16:38:24.617Z,74.70
2022-08-21T16:40:53.154Z,73.70
2022-08-21T16:43:22.977Z,72.60
2022-08-21T16:45:51.101Z,71.70
2022-08-21T16:48:19.428Z,68.60
2022-08-21T16:50:50.944Z,69.50
2022-08-21T16:53:20.762Z,68.60
2022-08-21T16:55:49.286Z,67.80
2022-08-21T16:58:20.770Z,68.80
2022-08-21T17:00:49.677Z,70.80
2022-08-21T17:03:21.282Z,70.60
2022-08-21T17:05:49.883Z,70.70
2022-08-21T17:08:18.072Z,70.20
2022-08-21T17:10:50.317Z,69.10
2022-08-21T17:13:19.177Z,70.50
2022-08-21T17:15:47.814Z,71.20
2022-08-21T17:18:18.343Z,71.30
2022-08-21T17:20:47.634Z,70.50
2022-08-21T17:23:16.385Z,69.60
2022-08-21T17:25:48.784Z,68.50
2022-08-21T17:28:22.037Z,66.60
2022-08-21T17:30:50.494Z,67.70
2022-08-21T17:33:21.586Z,67.00
2022-08-21T17:35:50.019Z,66.10
2022-08-21T17:38:18.622Z,64.70
2022-08-21T17:40:50.764Z,65.80
2022-08-21T17:43:19.247Z,66.00
2022-08-21T17:45:47.692Z,67.00
2022-08-21T17:48:15.921Z,67.60
2022-08-21T17:50:44.529Z,68.70
2022-08-21T17:53:12.853Z,69.40
2022-08-21T17:55:41.639Z,70.40
2022-08-21T17:58:13.841Z,71.30
2022-08-21T18:00:42.664Z,72.50
2022-08-21T18:03:16.322Z,73.70
2022-08-21T18:05:45.898Z,74.50
2022-08-21T18:08:15.101Z,75.20
2022-08-21T18:10:47.023Z,76.60
2022-08-21T18:13:20.835Z,78.20
2022-08-21T18:15:58.534Z,77.50
2022-08-21T18:18:27.875Z,77.90
2022-08-21T18:20:56.963Z,77.80
2022-08-21T18:23:43.592Z,78.00
2022-08-21T18:26:15.526Z,79.30
2022-08-21T18:28:45.665Z,79.90
2022-08-21T18:31:15.054Z,79.90
2022-08-21T18:33:56.985Z,80.30
2022-08-21T18:36:27.165Z,81.10
2022-08-21T18:39:04.418Z,81.70
2022-08-21T18:41:42.237Z,81.60
2022-08-21T18:44:13.865Z,81.50
2022-08-21T18:46:42.616Z,83.00
2022-08-21T18:49:10.761Z,84.20
2022-08-21T18:51:41.647Z,85.00
2022-08-21T18:54:13.394Z,86.40
2022-08-21T18:56:42.098Z,87.30
2022-08-21T18:59:13.432Z,88.30
2022-08-21T19:01:42.734Z,89.10
2022-08-21T19:04:25.203Z,89.60
2022-08-21T19:06:58.710Z,90.00
2022-08-21T19:09:27.124Z,89.80
2022-08-21T19:11:55.954Z,89.70
2022-08-21T19:14:25.740Z,89.80
2022-08-21T19:16:53.954Z,90.00
2022-08-21T19:19:22.310Z,90.30
2022-08-21T19:21:50.626Z,90.60
2022-08-21T19:27:08.068Z,90.60
2022-08-21T19:29:39.842Z,90.90
2022-08-21T19:32:09.140Z,91.20
2022-08-21T19:34:39.725Z,91.20
2022-08-21T19:37:08.873Z,91.30
2022-08-21T19:39:42.494Z,91.30
2022-08-21T19:42:15.717Z,91.30
2022-08-21T19:44:46.667Z,91.40
2022-08-21T19:47:19.123Z,91.60
2022-08-21T19:50:17.390Z,91.80
2022-08-21T19:52:51.494Z,91.70
2022-08-21T19:55:24.574Z,91.70
2022-08-21T19:57:54.892Z,92.00
2022-08-21T20:00:24.711Z,92.10
2022-08-21T20:02:53.849Z,92.20
2022-08-21T20:05:22.666Z,92.40
2022-08-21T20:07:50.911Z,92.60
2022-08-21T20:10:19.192Z,92.70
2022-08-21T20:12:51.394Z,92.60
2022-08-21T20:15:22.537Z,92.50
2022-08-21T20:17:53.386Z,92.70
2022-08-21T20:20:21.728Z,92.90
2022-08-21T20:22:50.031Z,93.00
2022-08-21T20:25:21.254Z,93.00
2022-08-21T20:27:49.973Z,93.10
2022-08-21T20:30:22.761Z,93.20
2022-08-21T20:32:52.598Z,93.30
2022-08-21T20:35:20.916Z,93.70
2022-08-21T20:40:39.439Z,93.60
2022-08-21T20:43:12.825Z,93.60
2022-08-21T20:45:41.482Z,93.70
2022-08-21T20:48:14.712Z,93.70
2022-08-21T20:50:48.591Z,93.70
2022-08-21T20:53:42.933Z,93.70
2022-08-21T20:56:17.005Z,93.80
2022-08-21T20:58:54.510Z,93.90
2022-08-21T21:01:25.554Z,94.10
2022-08-21T21:04:04.753Z,94.10
2022-08-21T21:06:39.277Z,94.10
2022-08-21T21:09:13.711Z,94.10
2022-08-21T21:14:38.456Z,94.20
2022-08-21T21:17:13.397Z,94.20
2022-08-21T21:19:48.421Z,94.10
2022-08-21T21:22:20.259Z,94.20
2022-08-21T21:24:56.321Z,94.10
2022-08-21T21:27:34.957Z,94.30
2022-08-21T21:30:12.490Z,94.30
2022-08-21T21:32:42.866Z,94.40
2022-08-21T21:35:16.459Z,94.50
2022-08-21T21:38:03.996Z,94.50
2022-08-21T21:40:42.215Z,94.50
2022-08-21T21:43:23.533Z,94.60
2022-08-21T21:46:08.654Z,94.50
2022-08-21T21:48:49.773Z,94.40
2022-08-21T21:51:28.245Z,94.80
2022-08-21T21:54:05.418Z,94.60
2022-08-21T21:56:42.202Z,94.60
2022-08-21T21:59:44.946Z,94.60
2022-08-21T22:02:24.637Z,94.90
2022-08-21T22:05:03.687Z,94.70
2022-08-21T22:07:40.673Z,94.80
2022-08-21T22:10:30.495Z,94.80
2022-08-21T22:13:11.076Z,94.70
2022-08-21T22:18:32.340Z,94.70
2022-08-21T22:21:05.364Z,94.80
2022-08-21T22:23:38.833Z,94.80
2022-08-21T22:26:10.245Z,94.60
2022-08-21T22:28:42.868Z,94.80
2022-08-21T22:31:19.028Z,94.90
2022-08-21T22:34:06.231Z,94.90
2022-08-21T22:36:37.562Z,94.90
2022-08-21T22:39:15.169Z,94.90
2022-08-21T22:41:46.279Z,94.80
2022-08-21T22:44:22.036Z,94.80
2022-08-21T22:46:55.505Z,94.90
2022-08-21T22:49:35.057Z,94.90
2022-08-21T22:52:11.119Z,94.90
2022-08-21T22:54:45.278Z,95.00
2022-08-21T22:57:22.964Z,95.10
2022-08-21T22:59:57.382Z,95.10
2022-08-21T23:02:37.270Z,95.20
2022-08-21T23:05:11.123Z,95.20
2022-08-21T23:07:43.487Z,95.30
2022-08-21T23:10:20.232Z,95.40
2022-08-21T23:12:52.229Z,95.40
2022-08-21T23:15:22.726Z,95.40
2022-08-21T23:18:01.065Z,95.50
2022-08-21T23:20:37.003Z,95.60
2022-08-21T23:23:11.213Z,95.60
2022-08-21T23:25:54.071Z,95.50
2022-08-21T23:28:37.838Z,95.30
2022-08-21T23:31:19.925Z,95.30
2022-08-21T23:34:06.183Z,95.50
2022-08-21T23:37:03.296Z,95.90
2022-08-21T23:39:46.098Z,95.70
2022-08-21T23:42:37.243Z,95.70
2022-08-21T23:45:13.636Z,96.30
2022-08-21T23:47:54.659Z,96.70
2022-08-21T23:50:26.844Z,97.20
2022-08-21T23:53:10.184Z,97.30
2022-08-21T23:55:54.643Z,97.30
2022-08-21T23:58:33.666Z,97.00
